createdAt,value
2022-09-15T00:00:19.446Z,99140.77
2022-09-15T00:03:09.664Z,99142.13
2022-09-15T00:05:40.147Z,99143.63
2022-09-15T00:08:10.288Z,99144.95
2022-09-15T00:11:01.040Z,99144.02
2022-09-15T00:13:33.839Z,99145.61
2022-09-15T00:16:06.439Z,99139.94
2022-09-15T00:18:38.017Z,99136.63
2022-09-15T00:21:10.268Z,99137.46
2022-09-15T00:23:40.913Z,99137.98
2022-09-15T00:26:14.628Z,99138.75
2022-09-15T00:28:45.709Z,99138.25
2022-09-15T00:31:19.256Z,99138.32
2022-09-15T00:33:55.428Z,99147.05
2022-09-15T00:36:27.505Z,99143.45
2022-09-15T00:38:58.359Z,99139.66
2022-09-15T00:41:28.562Z,99141.90
2022-09-15T00:44:00.818Z,99146.01
2022-09-15T00:46:34.918Z,99147.24
2022-09-15T00:49:07.948Z,99146.69
2022-09-15T00:51:47.451Z,99148.08
2022-09-15T00:54:30.579Z,99151.46
2022-09-15T00:57:06.817Z,99148.09
2022-09-15T00:59:40.699Z,99151.26
2022-09-15T01:02:24.262Z,99152.50
2022-09-15T01:04:58.511Z,99156.11
2022-09-15T01:07:45.038Z,99148.30
2022-09-15T01:10:30.382Z,99148.44
2022-09-15T01:13:04.508Z,99140.11
2022-09-15T01:15:44.498Z,99134.60
2022-09-15T01:21:36.058Z,99127.61
2022-09-15T01:24:30.836Z,99124.48
2022-09-15T01:27:41.532Z,99116.44
2022-09-15T01:30:14.360Z,99119.38
2022-09-15T01:33:10.410Z,99117.36
2022-09-15T01:35:55.477Z,99109.44
2022-09-15T01:38:25.970Z,99107.71
2022-09-15T01:41:02.078Z,99112.53
2022-09-15T01:43:35.619Z,99115.58
2022-09-15T01:46:08.499Z,99112.54
2022-09-15T01:48:40.801Z,99108.52
2022-09-15T01:51:11.861Z,99110.94
2022-09-15T01:53:42.597Z,99113.38
2022-09-15T01:56:14.016Z,99105.69
2022-09-15T01:58:44.579Z,99105.69
2022-09-15T02:01:17.416Z,99105.53
2022-09-15T02:04:13.146Z,99109.36
2022-09-15T02:06:54.117Z,99107.27
2022-09-15T02:09:35.965Z,99106.20
2022-09-15T02:12:35.432Z,99102.89
2022-09-15T02:15:15.360Z,99104.11
2022-09-15T02:17:50.898Z,99104.69
2022-09-15T02:20:49.779Z,99102.17
2022-09-15T02:23:28.051Z,99100.77
2022-09-15T02:26:05.148Z,99098.66
2022-09-15T02:28:40.457Z,99092.58
2022-09-15T02:31:14.323Z,99094.63
2022-09-15T02:33:50.468Z,99095.87
2022-09-15T02:36:22.998Z,99092.97
2022-09-15T02:38:59.890Z,99093.11
2022-09-15T02:41:30.407Z,99093.73
2022-09-15T02:44:00.838Z,99095.34
2022-09-15T02:46:31.841Z,99093.34
2022-09-15T02:49:02.118Z,99099.30
2022-09-15T02:51:32.759Z,99100.92
2022-09-15T02:54:03.136Z,99094.86
2022-09-15T02:56:33.518Z,99091.23
2022-09-15T02:59:03.919Z,99089.36
2022-09-15T03:01:35.151Z,99082.66
2022-09-15T03:04:05.958Z,99078.40
2022-09-15T03:06:36.617Z,99079.71
2022-09-15T03:09:09.519Z,99083.94
2022-09-15T03:11:40.034Z,99078.35
2022-09-15T03:14:13.866Z,99081.98
2022-09-15T03:16:44.263Z,99080.59
2022-09-15T03:19:14.627Z,99086.73
2022-09-15T03:21:44.960Z,99083.45
2022-09-15T03:24:15.748Z,99082.59
2022-09-15T03:26:46.096Z,99080.55
2022-09-15T03:29:16.708Z,99081.45
2022-09-15T03:31:46.857Z,99083.02
2022-09-15T03:34:17.397Z,99083.59
2022-09-15T03:36:47.498Z,99081.24
2022-09-15T03:39:17.846Z,99079.75
2022-09-15T03:41:49.308Z,99079.85
2022-09-15T03:44:19.758Z,99077.30
2022-09-15T03:46:50.117Z,99083.61
2022-09-15T03:49:20.358Z,99080.14
2022-09-15T03:51:52.847Z,99078.55
2022-09-15T03:54:25.738Z,99080.65
2022-09-15T03:56:56.010Z,99078.25
2022-09-15T03:59:26.568Z,99072.92
2022-09-15T04:01:56.887Z,99082.76
2022-09-15T04:04:27.606Z,99079.35
2022-09-15T04:06:57.920Z,99080.84
2022-09-15T04:09:28.917Z,99082.18
2022-09-15T04:11:59.336Z,99079.85
2022-09-15T04:14:29.698Z,99076.05
2022-09-15T04:17:00.036Z,99076.83
2022-09-15T04:19:30.678Z,99076.73
2022-09-15T04:22:00.918Z,99081.77
2022-09-15T04:24:33.197Z,99082.48
2022-09-15T04:27:03.727Z,99085.80
2022-09-15T04:29:34.456Z,99082.57
2022-09-15T04:32:08.199Z,99086.71
2022-09-15T04:34:41.370Z,99085.54
2022-09-15T04:37:12.339Z,99083.95
2022-09-15T04:39:42.848Z,99081.36
2022-09-15T04:42:13.246Z,99077.23
2022-09-15T04:44:46.158Z,99072.42
2022-09-15T04:47:16.429Z,99073.35
2022-09-15T04:49:47.248Z,99070.63
2022-09-15T04:52:17.589Z,99066.93
2022-09-15T04:54:48.085Z,99066.71
2022-09-15T04:57:18.441Z,99066.58
2022-09-15T04:59:49.738Z,99061.15
2022-09-15T05:02:20.049Z,99063.90
2022-09-15T05:04:53.876Z,99064.59
2022-09-15T05:07:24.298Z,99067.14
2022-09-15T05:09:55.145Z,99062.85
2022-09-15T05:12:25.398Z,99065.31
2022-09-15T05:14:55.818Z,99067.42
2022-09-15T05:17:26.886Z,99071.11
2022-09-15T05:19:57.166Z,99071.52
2022-09-15T05:22:28.270Z,99067.98
2022-09-15T05:24:58.825Z,99072.42
2022-09-15T05:27:29.341Z,99067.72
2022-09-15T05:30:23.520Z,99066.32
2022-09-15T05:32:49.968Z,99064.41
2022-09-15T05:35:23.808Z,99065.94
2022-09-15T05:37:55.098Z,99065.95
2022-09-15T05:40:25.395Z,99063.55
2022-09-15T05:42:55.676Z,99064.16
2022-09-15T05:45:26.279Z,99066.02
2022-09-15T05:48:00.313Z,99065.94
2022-09-15T05:50:35.792Z,99066.45
2022-09-15T05:53:43.128Z,99068.08
2022-09-15T05:56:15.646Z,99067.27
2022-09-15T05:58:53.575Z,99067.55
2022-09-15T06:01:26.990Z,99063.67
2022-09-15T06:03:59.580Z,99066.79
2022-09-15T06:06:32.908Z,99068.53
2022-09-15T06:09:03.593Z,99062.27
2022-09-15T06:11:35.153Z,99060.61
2022-09-15T06:14:06.491Z,99058.98
2022-09-15T06:16:37.692Z,99061.98
2022-09-15T06:19:08.358Z,99062.98
2022-09-15T06:21:39.398Z,99059.02
2022-09-15T06:24:14.159Z,99059.84
2022-09-15T06:26:47.374Z,99059.19
2022-09-15T06:29:18.114Z,99060.92
2022-09-15T06:31:48.808Z,99058.04
2022-09-15T06:34:19.678Z,99056.84
2022-09-15T06:36:50.457Z,99052.40
2022-09-15T06:39:21.243Z,99054.10
2022-09-15T06:42:06.928Z,99052.17
2022-09-15T06:44:38.109Z,99050.90
2022-09-15T06:47:08.621Z,99051.13
2022-09-15T06:49:39.097Z,99052.38
2022-09-15T06:52:09.429Z,99048.91
2022-09-15T06:55:05.774Z,99055.71
2022-09-15T06:57:36.648Z,99051.09
2022-09-15T07:00:08.240Z,99048.96
2022-09-15T07:02:38.660Z,99050.77
2022-09-15T07:05:09.778Z,99046.52
2022-09-15T07:07:39.958Z,99046.02
2022-09-15T07:10:11.699Z,99042.65
2022-09-15T07:12:41.901Z,99043.63
2022-09-15T07:15:12.576Z,99044.33
2022-09-15T07:17:42.738Z,99043.14
2022-09-15T07:20:13.102Z,99043.56
2022-09-15T07:22:44.589Z,99044.79
2022-09-15T07:25:15.253Z,99038.98
2022-09-15T07:27:46.028Z,99042.29
2022-09-15T07:30:16.550Z,99038.56
2022-09-15T07:32:46.996Z,99039.31
2022-09-15T07:35:17.636Z,99035.90
2022-09-15T07:37:48.761Z,99036.92
2022-09-15T07:40:19.387Z,99048.16
2022-09-15T07:42:49.954Z,99059.31
2022-09-15T07:45:20.405Z,99063.63
2022-09-15T07:47:50.758Z,99056.05
2022-09-15T07:50:53.374Z,99058.60
2022-09-15T07:53:23.739Z,99058.25
2022-09-15T07:55:55.065Z,99059.77
2022-09-15T07:58:25.674Z,99053.25
2022-09-15T08:00:55.823Z,99054.53
2022-09-15T08:03:26.240Z,99051.46
2022-09-15T08:06:04.179Z,99049.83
2022-09-15T08:08:34.308Z,99050.20
2022-09-15T08:11:16.348Z,99053.40
2022-09-15T08:13:53.805Z,99055.73
2022-09-15T08:21:31.996Z,99058.45
2022-09-15T08:24:02.943Z,99053.61
2022-09-15T08:26:33.608Z,99060.10
2022-09-15T08:29:04.218Z,99050.33
2022-09-15T08:31:34.520Z,99049.33
2022-09-15T08:34:07.346Z,99051.42
2022-09-15T08:36:37.469Z,99055.02
2022-09-15T08:39:08.516Z,99051.00
2022-09-15T08:41:51.249Z,99051.08
2022-09-15T08:44:56.027Z,99048.30
2022-09-15T08:47:43.148Z,99042.77
2022-09-15T08:51:21.418Z,99047.67
2022-09-15T08:57:30.606Z,99052.61
2022-09-15T09:00:01.187Z,99051.10
2022-09-15T09:02:39.952Z,99043.62
2022-09-15T09:09:51.776Z,99043.55
2022-09-15T09:17:01.537Z,99041.75
2022-09-15T09:31:32.859Z,99035.15
2022-09-15T09:34:18.219Z,99035.95
2022-09-15T09:36:57.244Z,99038.63
2022-09-15T09:39:30.997Z,99035.96
2022-09-15T09:42:02.850Z,99034.95
2022-09-15T09:44:34.056Z,99040.11
2022-09-15T09:47:07.108Z,99038.88
2022-09-15T09:53:56.068Z,99044.31
2022-09-15T10:01:12.201Z,99047.20
2022-09-15T10:03:44.266Z,99045.33
2022-09-15T10:06:21.117Z,99039.01
2022-09-15T10:09:03.958Z,99042.85
2022-09-15T10:11:56.848Z,99048.76
2022-09-15T10:14:37.187Z,99041.17
2022-09-15T10:17:26.294Z,99045.39
2022-09-15T10:20:08.546Z,99037.26
2022-09-15T10:22:42.316Z,99034.71
2022-09-15T10:25:21.630Z,99029.02
2022-09-15T10:28:13.566Z,99023.73
2022-09-15T10:31:08.249Z,99032.98
2022-09-15T10:33:45.339Z,99034.05
2022-09-15T10:36:21.459Z,99039.69
2022-09-15T10:39:02.645Z,99036.14
2022-09-15T10:41:47.138Z,99033.16
2022-09-15T10:45:14.490Z,99039.29
2022-09-15T10:48:03.477Z,99032.27
2022-09-15T10:55:37.061Z,99033.61
2022-09-15T10:58:20.528Z,99039.49
2022-09-15T11:01:03.292Z,99032.17
2022-09-15T11:03:42.619Z,99032.38
2022-09-15T11:06:48.717Z,99030.23
2022-09-15T11:09:44.658Z,99034.63
2022-09-15T11:12:50.114Z,99027.49
2022-09-15T11:15:29.957Z,99020.69
2022-09-15T11:18:06.140Z,99014.59
2022-09-15T11:20:43.048Z,99018.67
2022-09-15T11:23:19.647Z,99022.71
2022-09-15T11:30:27.407Z,99019.39
2022-09-15T11:33:16.996Z,99015.60
2022-09-15T11:35:54.388Z,99008.13
2022-09-15T11:38:48.354Z,98999.02
2022-09-15T11:44:52.128Z,98996.42
2022-09-15T11:47:52.376Z,98991.91
2022-09-15T12:06:08.966Z,99006.33
2022-09-15T12:12:56.932Z,99011.40
2022-09-15T12:15:28.890Z,99010.69
2022-09-15T12:23:28.562Z,99004.09
2022-09-15T12:26:05.636Z,99008.56
2022-09-15T12:37:54.942Z,99022.08
2022-09-15T12:40:40.766Z,99018.57
2022-09-15T12:43:26.011Z,99023.50
2022-09-15T12:46:01.354Z,99026.92
2022-09-15T12:48:37.418Z,99025.10
2022-09-15T12:51:12.851Z,99020.45
2022-09-15T12:53:56.258Z,99022.28
2022-09-15T12:56:30.191Z,99019.70
2022-09-15T12:59:08.806Z,99021.02
2022-09-15T13:01:45.191Z,99020.98
2022-09-15T13:08:52.753Z,99013.30
2022-09-15T13:11:37.671Z,99012.04
2022-09-15T13:18:07.569Z,99010.54
2022-09-15T13:20:41.829Z,99005.20
2022-09-15T13:23:16.296Z,99010.13
2022-09-15T13:25:48.266Z,99007.09
2022-09-15T13:28:54.104Z,99003.85
2022-09-15T13:35:53.785Z,99006.20
2022-09-15T13:44:08.013Z,99002.05
2022-09-15T13:46:59.390Z,99003.00
2022-09-15T13:49:47.666Z,99004.20
2022-09-15T13:52:42.296Z,99006.36
2022-09-15T13:55:22.085Z,99000.04
2022-09-15T14:01:22.659Z,99001.23
2022-09-15T14:04:28.099Z,98996.69
2022-09-15T14:07:01.517Z,98995.55
2022-09-15T14:14:23.879Z,98991.25
2022-09-15T14:17:29.039Z,98994.85
2022-09-15T14:20:01.460Z,98991.15
2022-09-15T14:22:38.586Z,98987.75
2022-09-15T14:25:17.024Z,98986.02
2022-09-15T14:27:53.624Z,98983.80
2022-09-15T14:30:29.578Z,98976.55
2022-09-15T14:33:02.483Z,98982.75
2022-09-15T14:35:38.680Z,98982.14
2022-09-15T14:38:34.978Z,98983.17
2022-09-15T14:45:57.600Z,98976.14
2022-09-15T14:48:31.174Z,98968.67
2022-09-15T14:51:10.780Z,98975.02
2022-09-15T14:53:43.640Z,98983.83
2022-09-15T14:56:21.488Z,98976.50
2022-09-15T14:59:00.471Z,98969.52
2022-09-15T15:01:54.349Z,98975.55
2022-09-15T15:04:42.057Z,98979.42
2022-09-15T15:07:25.370Z,98977.08
2022-09-15T15:10:00.494Z,98972.03
2022-09-15T15:12:42.028Z,98974.74
2022-09-15T15:15:17.880Z,98976.30
2022-09-15T15:17:55.046Z,98976.20
2022-09-15T15:20:31.894Z,98981.48
2022-09-15T15:23:25.295Z,98979.91
2022-09-15T15:27:34.272Z,98977.84
2022-09-15T15:30:37.960Z,98981.10
2022-09-15T15:33:21.259Z,98980.91
2022-09-15T15:36:04.578Z,98981.91
2022-09-15T15:38:47.221Z,98982.96
2022-09-15T15:41:45.749Z,98983.50
2022-09-15T15:44:18.737Z,98987.71
2022-09-15T15:46:51.956Z,98984.95
2022-09-15T15:49:27.680Z,98985.90
2022-09-15T15:52:00.267Z,98983.06
2022-09-15T15:54:31.073Z,98984.09
2022-09-15T15:57:25.040Z,98982.61
2022-09-15T15:59:59.229Z,98979.16
2022-09-15T16:02:29.902Z,98972.66
2022-09-15T16:05:01.379Z,98977.20
2022-09-15T16:07:34.169Z,98973.73
2022-09-15T16:10:04.958Z,98980.98
2022-09-15T16:12:35.670Z,98980.60
2022-09-15T16:15:13.639Z,98989.09
2022-09-15T16:17:46.904Z,98997.46
2022-09-15T16:20:20.086Z,99004.39
2022-09-15T16:22:50.413Z,99008.23
2022-09-15T16:25:39.316Z,99005.91
2022-09-15T16:28:09.963Z,99007.27
2022-09-15T16:30:40.291Z,99005.25
2022-09-15T16:33:18.719Z,99009.64
2022-09-15T16:35:57.978Z,99009.71
2022-09-15T16:38:28.926Z,99016.71
2022-09-15T16:40:59.879Z,99018.02
2022-09-15T16:43:30.558Z,99016.45
2022-09-15T16:46:00.738Z,99017.81
2022-09-15T16:48:31.007Z,99016.42
2022-09-15T16:51:20.855Z,99022.73
2022-09-15T16:53:52.638Z,99026.87
2022-09-15T16:56:23.269Z,99029.80
2022-09-15T17:03:27.416Z,99045.94
2022-09-15T17:06:00.699Z,99052.35
2022-09-15T17:08:34.225Z,99056.81
2022-09-15T17:11:07.144Z,99054.98
2022-09-15T17:13:37.724Z,99049.68
2022-09-15T17:16:09.482Z,99046.16
2022-09-15T17:18:39.757Z,99052.36
2022-09-15T17:21:13.355Z,99056.71
2022-09-15T17:23:47.176Z,99060.49
2022-09-15T17:26:21.547Z,99061.65
2022-09-15T17:28:54.723Z,99065.48
2022-09-15T17:31:26.475Z,99065.77
2022-09-15T17:33:56.986Z,99065.98
2022-09-15T17:36:28.200Z,99063.97
2022-09-15T17:38:58.728Z,99063.69
2022-09-15T17:41:29.169Z,99059.90
2022-09-15T17:44:00.024Z,99063.33
2022-09-15T17:46:30.559Z,99062.81
2022-09-15T17:49:01.026Z,99065.14
2022-09-15T17:51:31.299Z,99067.90
2022-09-15T17:54:01.858Z,99063.85
2022-09-15T17:56:32.301Z,99064.25
2022-09-15T18:03:36.427Z,99069.57
2022-09-15T18:06:10.176Z,99070.90
2022-09-15T18:08:41.052Z,99076.07
2022-09-15T18:11:15.827Z,99076.29
2022-09-15T18:13:46.747Z,99077.71
2022-09-15T18:16:17.721Z,99079.98
2022-09-15T18:19:09.937Z,99075.49
2022-09-15T18:22:04.043Z,99080.54
2022-09-15T18:24:34.927Z,99079.42
2022-09-15T18:27:06.167Z,99075.11
2022-09-15T18:29:37.299Z,99074.34
2022-09-15T18:32:08.128Z,99069.64
2022-09-15T18:34:38.601Z,99075.38
2022-09-15T18:37:10.328Z,99068.89
2022-09-15T18:40:50.362Z,99068.17
2022-09-15T18:43:22.156Z,99072.23
2022-09-15T18:45:59.779Z,99075.11
2022-09-15T18:48:35.026Z,99068.86
2022-09-15T18:51:10.041Z,99068.52
2022-09-15T18:53:40.610Z,99070.02
2022-09-15T18:56:16.254Z,99069.96
2022-09-15T18:58:47.019Z,99073.27
2022-09-15T19:01:18.749Z,99079.64
2022-09-15T19:04:26.361Z,99081.23
2022-09-15T19:07:00.409Z,99078.67
2022-09-15T19:09:34.259Z,99076.72
2022-09-15T19:12:06.466Z,99080.33
2022-09-15T19:14:37.417Z,99078.59
2022-09-15T19:17:08.408Z,99083.70
2022-09-15T19:19:40.828Z,99077.85
2022-09-15T19:22:11.499Z,99081.20
2022-09-15T19:24:42.248Z,99080.73
2022-09-15T19:27:12.881Z,99078.06
2022-09-15T19:29:43.570Z,99081.30
2022-09-15T19:32:17.505Z,99083.42
2022-09-15T19:34:50.439Z,99084.70
2022-09-15T19:37:24.003Z,99084.11
2022-09-15T19:39:55.402Z,99083.36
2022-09-15T19:42:26.750Z,99083.78
2022-09-15T19:44:57.548Z,99090.23
2022-09-15T19:47:28.845Z,99093.05
2022-09-15T19:50:01.901Z,99090.96
2022-09-15T19:52:32.680Z,99089.41
2022-09-15T19:55:03.753Z,99087.17
2022-09-15T19:57:34.337Z,99093.41
2022-09-15T20:00:05.924Z,99096.33
2022-09-15T20:02:36.508Z,99094.04
2022-09-15T20:05:11.383Z,99095.45
2022-09-15T20:07:41.756Z,99094.40
2022-09-15T20:10:12.926Z,99093.42
2022-09-15T20:12:43.392Z,99095.57
2022-09-15T20:15:14.233Z,99095.50
2022-09-15T20:17:44.454Z,99095.25
2022-09-15T20:20:14.831Z,99091.42
2022-09-15T20:22:45.194Z,99092.23
2022-09-15T20:25:15.883Z,99092.81
2022-09-15T20:27:48.120Z,99087.19
2022-09-15T20:30:24.773Z,99095.06
2022-09-15T20:35:46.704Z,99094.40
2022-09-15T20:38:20.996Z,99098.36
2022-09-15T20:40:57.153Z,99098.97
2022-09-15T20:43:28.409Z,99095.64
2022-09-15T20:45:59.823Z,99096.42
2022-09-15T20:48:33.339Z,99096.48
2022-09-15T20:51:09.002Z,99094.89
2022-09-15T20:53:41.253Z,99097.60
2022-09-15T20:56:11.730Z,99100.26
2022-09-15T20:58:42.680Z,99101.55
2022-09-15T21:01:18.622Z,99103.36
2022-09-15T21:03:49.420Z,99099.34
2022-09-15T21:06:24.431Z,99090.98
2022-09-15T21:08:56.134Z,99095.10
2022-09-15T21:11:28.029Z,99093.75
2022-09-15T21:13:59.143Z,99091.63
2022-09-15T21:16:31.119Z,99084.54
2022-09-15T21:19:01.638Z,99086.98
2022-09-15T21:21:34.397Z,99085.59
2022-09-15T21:24:07.959Z,99082.52
2022-09-15T21:27:01.713Z,99081.33
2022-09-15T21:29:32.102Z,99077.36
2022-09-15T21:32:02.593Z,99078.53
2022-09-15T21:34:33.310Z,99081.88
2022-09-15T21:37:03.661Z,99081.05
2022-09-15T21:39:34.227Z,99086.95
2022-09-15T21:42:05.677Z,99085.85
2022-09-15T21:44:36.089Z,99088.98
2022-09-15T21:47:06.578Z,99089.30
2022-09-15T21:49:36.887Z,99085.67
2022-09-15T21:52:07.346Z,99083.90
2022-09-15T21:54:37.761Z,99085.83
2022-09-15T21:57:08.550Z,99080.08
2022-09-15T21:59:39.005Z,99079.40
2022-09-15T22:02:11.389Z,99075.36
2022-09-15T22:04:41.734Z,99079.09
2022-09-15T22:07:12.549Z,99075.73
2022-09-15T22:09:43.298Z,99076.27
2022-09-15T22:12:15.870Z,99076.04
2022-09-15T22:14:46.558Z,99076.92
2022-09-15T22:17:17.049Z,99082.12
2022-09-15T22:19:47.681Z,99081.58
2022-09-15T22:22:18.079Z,99086.58
2022-09-15T22:24:49.977Z,99085.24
2022-09-15T22:27:20.337Z,99080.94
2022-09-15T22:29:50.954Z,99079.94
2022-09-15T22:32:21.468Z,99079.82
2022-09-15T22:34:51.879Z,99083.38
2022-09-15T22:37:22.476Z,99083.61
2022-09-15T22:39:58.978Z,99080.08
2022-09-15T22:42:32.418Z,99084.02
2022-09-15T22:45:02.808Z,99078.84
2022-09-15T22:47:35.407Z,99077.66
2022-09-15T22:50:06.019Z,99073.65
2022-09-15T22:52:36.320Z,99074.65
2022-09-15T22:55:07.336Z,99072.88
2022-09-15T22:57:40.036Z,99066.28
2022-09-15T23:00:11.305Z,99067.55
2022-09-15T23:02:41.726Z,99071.91
2022-09-15T23:05:12.519Z,99072.27
2022-09-15T23:07:42.727Z,99073.77
2022-09-15T23:10:14.094Z,99075.04
2022-09-15T23:12:44.416Z,99077.67
2022-09-15T23:15:16.247Z,99079.67
2022-09-15T23:17:47.379Z,99080.50
2022-09-15T23:20:17.601Z,99083.35
2022-09-15T23:22:48.036Z,99090.55
2022-09-15T23:25:18.197Z,99092.52
2022-09-15T23:27:48.646Z,99100.26
2022-09-15T23:30:19.044Z,99097.83
2022-09-15T23:32:49.497Z,99097.94
2022-09-15T23:35:20.043Z,99089.89
2022-09-15T23:37:50.376Z,99089.19
2022-09-15T23:40:20.780Z,99086.95
2022-09-15T23:42:51.345Z,99087.88
2022-09-15T23:45:21.647Z,99096.05
2022-09-15T23:47:51.897Z,99094.40
2022-09-15T23:50:25.826Z,99092.30
2022-09-15T23:52:56.647Z,99096.23
2022-09-15T23:55:27.158Z,99102.48
2022-09-15T23:57:58.077Z,99099.23
